Time;durP1;ratioP1;P1;durP2;ratioP2;P2;SDS_P1;SDS_P2;PMS_P1;PMS_P2;Temp;Humidity;BMP_temperature;BMP_pressure;BME280_temperature;BME280_humidity;BME280_pressure;Samples;Min_cycle;Max_cycle;Signal;HPM_P1;HPM_P2
2021/03/16 00:01:42;;;;;;;13.98;3.20;;;5.10;99.90;;;;;;5059961;28;20011;-45
2021/03/16 00:04:07;;;;;;;12.68;2.63;;;5.00;99.90;;;;;;5054271;28;20029;-46
2021/03/16 00:06:33;;;;;;;14.65;3.50;;;5.10;99.90;;;;;;5056896;28;20028;-45
2021/03/16 00:08:58;;;;;;;13.70;3.40;;;5.10;99.90;;;;;;5058581;28;20063;-46
2021/03/16 00:11:24;;;;;;;23.83;3.90;;;5.00;99.90;;;;;;5056604;28;20108;-45
2021/03/16 00:13:49;;;;;;;14.57;3.08;;;5.00;99.90;;;;;;5056738;28;20049;-44
2021/03/16 00:16:15;;;;;;;13.65;3.20;;;5.00;99.90;;;;;;5057689;28;20028;-46
2021/03/16 00:18:40;;;;;;;16.05;3.25;;;5.00;99.90;;;;;;5057219;28;20521;-45
2021/03/16 00:21:06;;;;;;;15.48;3.40;;;5.00;99.90;;;;;;5056652;28;20179;-45
2021/03/16 00:23:31;;;;;;;11.05;3.45;;;5.00;99.90;;;;;;5053608;28;20123;-45
2021/03/16 00:25:57;;;;;;;15.27;3.97;;;5.00;99.90;;;;;;5055637;28;20035;-46
2021/03/16 00:28:22;;;;;;;23.67;4.05;;;5.00;99.90;;;;;;5056634;28;20027;-45
2021/03/16 00:30:48;;;;;;;17.63;3.65;;;4.90;99.90;;;;;;5049400;28;20044;-45
2021/03/16 00:33:13;;;;;;;22.45;3.58;;;4.90;99.90;;;;;;5063408;28;20078;-46
2021/03/16 00:35:39;;;;;;;12.15;3.50;;;4.90;99.90;;;;;;5049488;28;20047;-46
2021/03/16 00:38:04;;;;;;;23.08;3.80;;;4.90;99.90;;;;;;5049425;28;20025;-46
2021/03/16 00:40:30;;;;;;;15.82;3.75;;;4.90;99.90;;;;;;5047908;28;20033;-47
2021/03/16 00:42:55;;;;;;;13.60;3.42;;;4.90;99.90;;;;;;5049262;28;20021;-45
2021/03/16 00:45:21;;;;;;;18.70;4.90;;;4.90;99.90;;;;;;5048698;28;20029;-45
2021/03/16 00:47:46;;;;;;;27.60;3.97;;;4.90;99.90;;;;;;5048846;28;20057;-45
2021/03/16 00:50:12;;;;;;;15.95;3.65;;;4.90;99.90;;;;;;5048821;28;20037;-45
2021/03/16 00:52:38;;;;;;;18.50;4.15;;;4.90;99.90;;;;;;5048454;28;20092;-46
2021/03/16 00:55:05;;;;;;;19.10;4.80;;;4.80;99.90;;;;;;5048187;28;20052;-45
2021/03/16 00:57:31;;;;;;;25.00;4.45;;;4.80;99.90;;;;;;5049282;28;20013;-45
2021/03/16 00:59:56;;;;;;;26.23;4.88;;;4.80;99.90;;;;;;5048106;28;20025;-46
2021/03/16 01:02:22;;;;;;;12.95;4.25;;;4.80;99.90;;;;;;5048787;28;20029;-45
2021/03/16 01:04:47;;;;;;;17.98;4.18;;;4.80;99.90;;;;;;5048137;28;20260;-45
2021/03/16 01:07:13;;;;;;;14.75;3.03;;;4.80;99.90;;;;;;5049969;28;20033;-46
2021/03/16 01:09:39;;;;;;;24.48;3.97;;;4.70;99.90;;;;;;5055603;28;20478;-46
2021/03/16 01:12:05;;;;;;;9.35;3.10;;;4.80;99.90;;;;;;5048431;28;20165;-48
2021/03/16 01:14:31;;;;;;;14.45;3.55;;;4.70;99.90;;;;;;5046718;28;20017;-46
2021/03/16 01:16:57;;;;;;;22.98;5.53;;;4.80;99.90;;;;;;5046848;28;20021;-45
2021/03/16 01:19:22;;;;;;;9.10;3.08;;;4.70;99.90;;;;;;5048099;28;20025;-46
2021/03/16 01:21:47;;;;;;;25.35;4.43;;;4.70;99.90;;;;;;5048642;28;20180;-46
2021/03/16 01:24:13;;;;;;;19.80;4.00;;;4.70;99.90;;;;;;5047499;28;20029;-47
2021/03/16 01:26:39;;;;;;;16.17;4.57;;;4.60;99.90;;;;;;5048202;28;20124;-43
2021/03/16 01:29:05;;;;;;;18.83;4.82;;;4.60;99.90;;;;;;5047502;28;20021;-46
2021/03/16 01:31:30;;;;;;;22.17;3.60;;;4.60;99.90;;;;;;5048435;28;20056;-46
2021/03/16 01:33:56;;;;;;;17.08;3.80;;;4.50;99.90;;;;;;5048094;28;20017;-46
2021/03/16 01:36:21;;;;;;;16.92;4.15;;;4.50;99.90;;;;;;5047238;28;20395;-47
2021/03/16 01:38:47;;;;;;;26.42;4.63;;;4.50;99.90;;;;;;5058358;28;20027;-46
2021/03/16 01:41:12;;;;;;;19.10;3.90;;;4.40;99.90;;;;;;5047611;28;20025;-46
2021/03/16 01:43:38;;;;;;;22.98;4.53;;;4.40;99.90;;;;;;5047705;28;20032;-46
2021/03/16 01:46:06;;;;;;;18.55;3.72;;;4.30;99.90;;;;;;5046155;28;20025;-45
2021/03/16 01:48:34;;;;;;;28.83;4.55;;;4.30;99.90;;;;;;5048289;28;20479;-45
2021/03/16 01:51:08;;;;;;;22.38;3.80;;;4.30;99.90;;;;;;5047712;28;20029;-45
2021/03/16 01:53:35;;;;;;;15.52;3.65;;;4.20;99.90;;;;;;5046097;28;20024;-46
2021/03/16 01:56:02;;;;;;;12.90;3.70;;;4.20;99.90;;;;;;5046989;28;20124;-46
2021/03/16 01:58:28;;;;;;;16.58;4.28;;;4.20;99.90;;;;;;5047814;28;20056;-45
2021/03/16 02:00:54;;;;;;;15.45;4.68;;;4.10;99.90;;;;;;5047634;28;20032;-47
2021/03/16 02:03:20;;;;;;;16.95;4.30;;;4.00;99.90;;;;;;5046292;28;20463;-45
2021/03/16 02:05:45;;;;;;;25.95;5.70;;;4.00;99.90;;;;;;5046348;28;20087;-45
2021/03/16 02:08:48;;;;;;;17.52;4.13;;;4.00;99.90;;;;;;5045867;28;20075;-48
2021/03/16 02:11:28;;;;;;;15.15;4.55;;;3.90;99.90;;;;;;5059844;28;20063;-46
2021/03/16 02:14:21;;;;;;;17.52;3.83;;;3.80;99.90;;;;;;5067136;28;20051;-47
2021/03/16 02:17:02;;;;;;;19.52;4.45;;;3.70;99.90;;;;;;5048987;28;20025;-46
2021/03/16 02:19:52;;;;;;;21.48;4.30;;;3.60;99.90;;;;;;5046586;28;20079;-45
2021/03/16 02:22:19;;;;;;;19.25;3.88;;;3.60;99.90;;;;;;5046710;28;20029;-46
2021/03/16 02:25:06;;;;;;;14.75;4.03;;;3.50;99.90;;;;;;5046704;28;20396;-45
2021/03/16 02:28:09;;;;;;;23.35;4.18;;;3.50;99.90;;;;;;5046332;28;20032;-45
2021/03/16 02:30:38;;;;;;;13.98;4.20;;;3.40;99.90;;;;;;5044897;28;20367;-47
2021/03/16 02:33:09;;;;;;;13.30;4.07;;;3.40;99.90;;;;;;5046854;28;20083;-44
2021/03/16 02:35:35;;;;;;;22.92;4.28;;;3.30;99.90;;;;;;5047002;28;20025;-46
2021/03/16 02:38:03;;;;;;;16.90;3.60;;;3.30;99.90;;;;;;5046422;28;20206;-45
2021/03/16 02:40:30;;;;;;;19.80;4.03;;;3.20;99.90;;;;;;5046701;28;20035;-45
2021/03/16 02:42:57;;;;;;;12.18;3.30;;;3.20;99.90;;;;;;5046546;28;20505;-45
2021/03/16 02:45:23;;;;;;;23.42;3.65;;;3.10;99.90;;;;;;5046737;28;20021;-45
2021/03/16 02:47:49;;;;;;;19.17;3.92;;;3.10;99.90;;;;;;5046606;28;20028;-45
2021/03/16 02:50:16;;;;;;;15.13;4.45;;;3.10;99.90;;;;;;5047250;28;20041;-46
2021/03/16 02:52:43;;;;;;;18.95;4.00;;;3.00;99.90;;;;;;5046820;28;20608;-47
2021/03/16 02:55:09;;;;;;;15.75;3.95;;;3.00;99.90;;;;;;5046186;28;20256;-46
2021/03/16 02:57:37;;;;;;;18.33;4.72;;;3.00;99.90;;;;;;5047403;28;20039;-45
2021/03/16 03:00:04;;;;;;;19.52;3.80;;;3.00;99.90;;;;;;5047536;28;20411;-47
2021/03/16 03:02:31;;;;;;;17.50;3.97;;;2.90;99.90;;;;;;5058841;28;20581;-46
2021/03/16 03:04:58;;;;;;;18.92;4.50;;;2.90;99.90;;;;;;5057723;28;20067;-45
2021/03/16 03:07:25;;;;;;;17.95;4.13;;;2.90;99.90;;;;;;5046847;28;20122;-45
2021/03/16 03:09:50;;;;;;;17.13;3.60;;;2.80;99.90;;;;;;5045490;28;20029;-46
2021/03/16 03:12:16;;;;;;;19.02;3.42;;;2.80;99.90;;;;;;5060692;28;20528;-46
2021/03/16 03:14:42;;;;;;;16.40;3.60;;;2.80;99.90;;;;;;5057626;28;20025;-44
2021/03/16 03:17:08;;;;;;;21.35;4.20;;;2.70;99.90;;;;;;5047715;28;20458;-45
2021/03/16 03:19:34;;;;;;;22.13;4.88;;;2.70;99.90;;;;;;5050113;28;20017;-49
2021/03/16 03:22:26;;;;;;;15.18;4.43;;;2.70;99.90;;;;;;5050723;28;20051;-47
2021/03/16 03:24:57;;;;;;;27.02;5.00;;;2.60;99.90;;;;;;5049242;28;20394;-46
2021/03/16 03:27:26;;;;;;;21.35;3.95;;;2.60;99.90;;;;;;5051168;28;20032;-45
2021/03/16 03:29:52;;;;;;;22.42;3.75;;;2.60;99.90;;;;;;5048502;28;20021;-47
2021/03/16 03:32:22;;;;;;;17.33;3.15;;;2.60;99.90;;;;;;5050631;28;20028;-46
2021/03/16 03:34:49;;;;;;;16.38;3.58;;;2.60;99.90;;;;;;5048503;28;20029;-46
2021/03/16 03:37:20;;;;;;;17.08;3.33;;;2.70;99.90;;;;;;5048821;28;20077;-44
2021/03/16 03:39:47;;;;;;;14.23;3.25;;;2.70;99.90;;;;;;5049947;28;20118;-49
2021/03/16 03:42:15;;;;;;;14.65;3.80;;;2.80;99.90;;;;;;5050735;28;20099;-47
2021/03/16 03:44:43;;;;;;;11.52;2.75;;;2.80;99.90;;;;;;5048507;28;20478;-46
2021/03/16 03:47:10;;;;;;;14.45;4.50;;;2.80;99.90;;;;;;5050059;28;20033;-47
2021/03/16 03:49:38;;;;;;;15.63;3.90;;;2.80;99.90;;;;;;5049939;28;20024;-46
2021/03/16 03:52:04;;;;;;;18.58;4.38;;;2.80;99.90;;;;;;5050529;28;20155;-46
2021/03/16 03:54:30;;;;;;;15.82;4.38;;;2.80;99.90;;;;;;5049749;28;20017;-45
2021/03/16 03:56:56;;;;;;;9.65;2.83;;;2.70;99.90;;;;;;5049879;28;20028;-45
2021/03/16 03:59:24;;;;;;;16.75;3.22;;;2.70;99.90;;;;;;5050076;28;20017;-47
2021/03/16 04:01:50;;;;;;;22.27;3.15;;;2.60;99.90;;;;;;5050516;28;20617;-46
2021/03/16 04:04:17;;;;;;;13.40;3.92;;;2.60;99.90;;;;;;5051959;28;21478;-45
2021/03/16 04:06:43;;;;;;;13.70;4.00;;;2.60;99.90;;;;;;5048534;28;20032;-46
2021/03/16 04:09:10;;;;;;;19.15;3.40;;;2.60;99.90;;;;;;5049633;28;20027;-44
2021/03/16 04:11:35;;;;;;;28.20;4.28;;;2.50;99.90;;;;;;5054734;28;20070;-45
2021/03/16 04:14:01;;;;;;;14.25;2.75;;;2.50;99.90;;;;;;5064257;28;20024;-46
2021/03/16 04:16:28;;;;;;;16.00;3.80;;;2.40;99.90;;;;;;5063083;28;20021;-44
2021/03/16 04:18:54;;;;;;;13.93;3.50;;;2.40;99.90;;;;;;5050283;28;20502;-48
2021/03/16 04:21:20;;;;;;;11.82;3.28;;;2.40;99.90;;;;;;5049631;28;20036;-46
2021/03/16 04:23:46;;;;;;;12.43;3.15;;;2.40;99.90;;;;;;5050274;28;20037;-45
2021/03/16 04:26:11;;;;;;;16.52;4.53;;;2.40;99.90;;;;;;5048463;28;20442;-45
2021/03/16 04:28:38;;;;;;;31.83;4.68;;;2.30;99.90;;;;;;5049706;28;20462;-45
2021/03/16 04:31:03;;;;;;;22.50;3.42;;;2.30;99.90;;;;;;5048638;28;20040;-46
2021/03/16 04:33:29;;;;;;;12.40;3.20;;;2.30;99.90;;;;;;5050135;28;20025;-46
2021/03/16 04:35:54;;;;;;;25.48;4.43;;;2.30;99.90;;;;;;5048551;28;20032;-45
2021/03/16 04:38:20;;;;;;;13.13;3.33;;;2.30;99.90;;;;;;5049177;28;20036;-47
2021/03/16 04:40:45;;;;;;;24.13;3.80;;;2.30;99.90;;;;;;5048996;28;20469;-46
2021/03/16 04:43:11;;;;;;;21.98;4.20;;;2.30;99.90;;;;;;5048208;28;20259;-47
2021/03/16 04:45:37;;;;;;;25.40;6.55;;;2.20;99.90;;;;;;5047606;28;20028;-46
2021/03/16 04:48:03;;;;;;;25.02;5.35;;;2.30;99.90;;;;;;5049077;28;20033;-46
2021/03/16 04:50:29;;;;;;;14.43;4.78;;;2.40;99.90;;;;;;5047260;28;20028;-45
2021/03/16 04:52:54;;;;;;;18.40;6.03;;;2.40;99.90;;;;;;5049366;28;20024;-45
2021/03/16 04:55:20;;;;;;;24.40;5.60;;;2.40;99.90;;;;;;5048166;28;20478;-44
2021/03/16 04:57:46;;;;;;;30.67;6.90;;;2.40;99.90;;;;;;5049097;28;20100;-44
2021/03/16 05:00:12;;;;;;;26.13;6.60;;;2.40;99.90;;;;;;5049214;28;20112;-45
2021/03/16 05:02:38;;;;;;;14.05;6.18;;;2.30;99.90;;;;;;5048756;28;20125;-45
2021/03/16 05:05:05;;;;;;;28.73;6.95;;;2.40;99.90;;;;;;5047211;28;20048;-45
2021/03/16 05:07:30;;;;;;;26.70;7.97;;;2.30;99.90;;;;;;5047232;28;20067;-44
2021/03/16 05:09:56;;;;;;;24.77;7.75;;;2.30;99.90;;;;;;5055035;28;20115;-45
2021/03/16 05:12:21;;;;;;;25.60;8.13;;;2.40;99.90;;;;;;5060090;28;20078;-44
2021/03/16 05:14:47;;;;;;;22.48;8.52;;;2.40;99.90;;;;;;5060884;28;20021;-45
2021/03/16 05:17:12;;;;;;;22.90;7.75;;;2.40;99.90;;;;;;5056659;28;20017;-45
2021/03/16 05:19:38;;;;;;;27.00;8.48;;;2.40;99.90;;;;;;5057190;28;20036;-47
2021/03/16 05:22:04;;;;;;;26.70;8.85;;;2.40;99.90;;;;;;5057786;28;20078;-46
2021/03/16 05:24:30;;;;;;;21.73;7.63;;;2.40;99.90;;;;;;5056483;28;20029;-47
2021/03/16 05:26:55;;;;;;;23.55;8.05;;;2.30;99.90;;;;;;5055468;28;20028;-46
2021/03/16 05:29:20;;;;;;;30.35;8.85;;;2.40;99.90;;;;;;5055999;28;21155;-45
2021/03/16 05:31:46;;;;;;;24.15;8.35;;;2.40;99.90;;;;;;5066075;28;20090;-44
2021/03/16 05:34:12;;;;;;;28.83;8.70;;;2.40;99.90;;;;;;5056577;28;20031;-45
2021/03/16 05:36:37;;;;;;;24.35;8.10;;;2.50;99.90;;;;;;5057273;28;20028;-45
2021/03/16 05:39:03;;;;;;;26.50;7.65;;;2.50;99.90;;;;;;5056393;28;20538;-45
2021/03/16 05:41:30;;;;;;;26.88;8.95;;;2.40;99.90;;;;;;5056603;28;20498;-46
2021/03/16 05:43:55;;;;;;;31.38;9.05;;;2.50;99.90;;;;;;5055068;28;20403;-45
2021/03/16 05:46:22;;;;;;;35.63;8.23;;;2.50;99.90;;;;;;5052125;28;20191;-47
2021/03/16 05:48:50;;;;;;;21.92;8.70;;;2.50;99.90;;;;;;5058388;28;20048;-48
2021/03/16 05:51:16;;;;;;;24.27;9.20;;;2.50;99.90;;;;;;5054507;28;20056;-45
2021/03/16 05:53:46;;;;;;;26.58;9.02;;;2.50;99.90;;;;;;5056810;28;20466;-46
2021/03/16 05:56:12;;;;;;;22.75;8.18;;;2.50;99.90;;;;;;5049824;28;20037;-46
2021/03/16 05:58:38;;;;;;;22.42;8.88;;;2.50;99.90;;;;;;5057665;28;20386;-47
2021/03/16 06:01:04;;;;;;;21.40;8.18;;;2.60;99.90;;;;;;5054764;28;20193;-44
2021/03/16 06:03:29;;;;;;;23.05;9.45;;;2.60;99.90;;;;;;5055240;28;20025;-45
2021/03/16 06:05:55;;;;;;;29.88;9.32;;;2.70;99.90;;;;;;5058679;28;20119;-45
2021/03/16 06:08:20;;;;;;;31.40;8.73;;;2.70;99.90;;;;;;5047404;28;20398;-43
2021/03/16 06:10:46;;;;;;;24.45;10.00;;;2.70;99.90;;;;;;5047761;28;20029;-44
2021/03/16 06:13:13;;;;;;;30.45;10.48;;;2.80;99.90;;;;;;5045911;28;20021;-46
2021/03/16 06:15:39;;;;;;;19.80;9.13;;;2.80;99.90;;;;;;5057950;28;20078;-44
2021/03/16 06:18:05;;;;;;;26.45;9.77;;;2.80;99.90;;;;;;5052081;28;20030;-44
2021/03/16 06:20:33;;;;;;;22.15;9.70;;;2.90;99.90;;;;;;5049111;28;20017;-45
2021/03/16 06:23:09;;;;;;;25.63;9.50;;;2.90;99.90;;;;;;5059750;28;20035;-44
2021/03/16 06:25:40;;;;;;;28.60;9.50;;;3.00;99.90;;;;;;5052204;28;20028;-44
2021/03/16 06:28:13;;;;;;;37.85;10.73;;;3.00;99.90;;;;;;5059821;28;20106;-45
2021/03/16 06:30:40;;;;;;;28.52;9.82;;;3.10;99.90;;;;;;5048246;28;20580;-44
2021/03/16 06:33:22;;;;;;;31.30;9.43;;;3.10;99.90;;;;;;5055580;28;20315;-46
2021/03/16 06:36:05;;;;;;;28.55;8.70;;;3.20;99.90;;;;;;5066157;28;20133;-45
2021/03/16 06:38:32;;;;;;;23.58;8.48;;;3.20;99.90;;;;;;5049520;28;20036;-45
2021/03/16 06:41:14;;;;;;;36.45;10.85;;;3.30;99.90;;;;;;5056381;28;20028;-44
2021/03/16 06:43:41;;;;;;;28.48;8.80;;;3.40;99.90;;;;;;5053894;28;20024;-46
2021/03/16 06:46:07;;;;;;;27.75;9.45;;;3.40;99.90;;;;;;5051428;28;20028;-46
2021/03/16 06:48:35;;;;;;;27.55;8.57;;;3.50;99.90;;;;;;5053528;28;20024;-45
2021/03/16 06:51:12;;;;;;;31.23;8.48;;;3.50;99.90;;;;;;5057239;28;20025;-45
2021/03/16 06:53:38;;;;;;;27.70;7.95;;;3.60;99.90;;;;;;5060043;28;20041;-46
2021/03/16 06:56:04;;;;;;;21.90;8.35;;;3.70;99.90;;;;;;5062143;28;20047;-46
2021/03/16 06:58:33;;;;;;;24.05;7.88;;;3.80;99.90;;;;;;5064569;28;20021;-44
2021/03/16 07:01:13;;;;;;;40.53;8.80;;;3.80;99.90;;;;;;5060393;28;20028;-43
2021/03/16 07:03:39;;;;;;;23.83;7.20;;;3.80;99.90;;;;;;5060319;28;20051;-44
2021/03/16 07:06:12;;;;;;;25.73;8.02;;;3.90;99.90;;;;;;5056447;28;20284;-43
2021/03/16 07:08:39;;;;;;;20.83;6.38;;;4.00;99.90;;;;;;5060045;28;20115;-47
2021/03/16 07:11:07;;;;;;;22.27;6.88;;;4.10;99.90;;;;;;5053625;28;20056;-45
2021/03/16 07:13:34;;;;;;;31.73;8.25;;;4.20;99.90;;;;;;5059348;28;20033;-46
2021/03/16 07:16:02;;;;;;;31.77;7.10;;;4.30;99.90;;;;;;5057247;28;20082;-45
2021/03/16 07:18:28;;;;;;;21.00;7.00;;;4.30;99.90;;;;;;5057582;28;20398;-44
2021/03/16 07:20:58;;;;;;;30.30;6.57;;;4.40;99.90;;;;;;5053927;28;20125;-44
2021/03/16 07:23:25;;;;;;;22.08;7.07;;;4.30;99.90;;;;;;5048991;28;20029;-45
2021/03/16 07:25:52;;;;;;;15.88;6.82;;;4.30;99.90;;;;;;5057280;28;20020;-46
2021/03/16 07:28:19;;;;;;;18.52;6.35;;;4.40;99.90;;;;;;5050814;28;20562;-48
2021/03/16 07:30:45;;;;;;;32.42;7.15;;;4.40;99.90;;;;;;5052699;28;20055;-46
2021/03/16 07:33:13;;;;;;;22.45;7.15;;;4.50;99.90;;;;;;5064705;28;20462;-46
2021/03/16 07:35:39;;;;;;;30.73;7.75;;;4.50;99.90;;;;;;5055415;28;20021;-47
2021/03/16 07:38:06;;;;;;;27.25;9.93;;;4.50;99.90;;;;;;5058233;28;20032;-47
2021/03/16 07:40:32;;;;;;;26.13;7.03;;;4.50;99.90;;;;;;5054746;28;20509;-47
2021/03/16 07:42:57;;;;;;;27.83;6.45;;;4.60;99.90;;;;;;5057079;28;20203;-46
2021/03/16 07:45:25;;;;;;;29.98;7.07;;;4.70;99.90;;;;;;5056651;28;20115;-48
2021/03/16 07:47:52;;;;;;;22.00;6.40;;;4.70;99.90;;;;;;5059239;28;20036;-46
2021/03/16 07:50:28;;;;;;;18.73;5.65;;;4.70;99.90;;;;;;5057731;28;20132;-46
2021/03/16 07:52:54;;;;;;;27.83;7.60;;;4.80;99.90;;;;;;5059292;28;20024;-46
2021/03/16 07:55:29;;;;;;;26.60;6.32;;;4.70;99.90;;;;;;5061338;28;20028;-46
2021/03/16 07:58:12;;;;;;;25.58;5.60;;;4.80;99.90;;;;;;5057690;28;20104;-48
2021/03/16 08:00:38;;;;;;;24.17;6.50;;;4.80;99.90;;;;;;5056090;28;20497;-47
2021/03/16 08:03:06;;;;;;;24.73;6.63;;;4.80;99.90;;;;;;5051440;28;20029;-47
2021/03/16 08:05:39;;;;;;;22.70;5.60;;;5.00;99.90;;;;;;5055483;28;20012;-45
2021/03/16 08:08:18;;;;;;;34.35;6.50;;;4.90;99.90;;;;;;5056892;28;20490;-46
2021/03/16 08:10:44;;;;;;;23.30;5.55;;;4.90;99.90;;;;;;5056327;28;20040;-46
2021/03/16 08:13:15;;;;;;;24.80;6.97;;;5.00;99.90;;;;;;5055527;28;20060;-46
2021/03/16 08:15:48;;;;;;;30.50;6.22;;;5.10;99.90;;;;;;5056959;28;20017;-47
2021/03/16 08:18:26;;;;;;;14.63;4.75;;;5.20;99.90;;;;;;5054824;28;20034;-46
2021/03/16 08:20:53;;;;;;;15.27;5.90;;;5.20;99.90;;;;;;5058390;28;20501;-46
2021/03/16 08:23:18;;;;;;;26.55;4.95;;;5.20;99.90;;;;;;5055411;28;20071;-46
2021/03/16 08:25:47;;;;;;;22.45;5.55;;;5.30;99.90;;;;;;5053762;28;20021;-46
2021/03/16 08:28:16;;;;;;;20.98;4.45;;;5.40;99.90;;;;;;5057212;28;20029;-46
2021/03/16 08:30:42;;;;;;;15.00;4.78;;;5.40;99.90;;;;;;5057833;28;20025;-46
2021/03/16 08:33:12;;;;;;;14.38;3.35;;;5.40;99.90;;;;;;5056712;28;20501;-47
2021/03/16 08:35:42;;;;;;;20.48;3.80;;;5.50;99.90;;;;;;5053780;28;20167;-46
2021/03/16 08:38:08;;;;;;;18.40;4.45;;;5.60;99.90;;;;;;5054341;28;20021;-46
2021/03/16 08:40:35;;;;;;;13.88;4.32;;;5.70;99.90;;;;;;5060628;28;20509;-47
2021/03/16 08:43:07;;;;;;;14.07;3.97;;;5.80;99.90;;;;;;5064012;28;20035;-46
2021/03/16 08:45:33;;;;;;;19.85;3.92;;;5.80;99.90;;;;;;5036702;28;20021;-46
2021/03/16 08:47:58;;;;;;;21.92;3.78;;;5.80;99.90;;;;;;5051879;28;20031;-47
2021/03/16 08:50:25;;;;;;;21.70;4.25;;;5.90;99.90;;;;;;5056764;28;20089;-48
2021/03/16 08:52:51;;;;;;;17.38;3.42;;;5.80;99.90;;;;;;5054420;28;20487;-46
2021/03/16 08:55:26;;;;;;;16.95;3.60;;;6.00;99.90;;;;;;5055599;28;20493;-46
2021/03/16 08:57:53;;;;;;;21.60;3.47;;;6.10;99.90;;;;;;5056522;28;20070;-47
2021/03/16 09:00:23;;;;;;;17.15;3.42;;;6.00;99.90;;;;;;5057610;28;20416;-46
2021/03/16 09:02:49;;;;;;;21.25;3.53;;;6.10;99.90;;;;;;5056296;28;20024;-47
2021/03/16 09:05:20;;;;;;;13.73;3.90;;;6.20;99.90;;;;;;5054952;28;20029;-47
2021/03/16 09:07:46;;;;;;;18.70;4.07;;;6.20;99.90;;;;;;5056515;28;20505;-47
2021/03/16 09:10:18;;;;;;;16.67;2.92;;;6.10;99.90;;;;;;5055237;28;20032;-48
2021/03/16 09:12:46;;;;;;;16.42;3.33;;;6.20;99.90;;;;;;5057830;28;20153;-47
2021/03/16 09:15:16;;;;;;;13.80;3.00;;;6.20;99.90;;;;;;5050107;28;20541;-47
2021/03/16 09:17:43;;;;;;;12.67;2.73;;;6.20;99.90;;;;;;5056603;28;20486;-48
2021/03/16 09:20:21;;;;;;;13.85;3.97;;;6.30;99.90;;;;;;5055741;28;20158;-48
2021/03/16 09:22:55;;;;;;;18.60;4.47;;;6.30;99.90;;;;;;5058134;28;20029;-46
2021/03/16 09:25:35;;;;;;;14.40;3.00;;;6.30;99.90;;;;;;5052405;28;20612;-46
2021/03/16 09:28:03;;;;;;;17.45;4.18;;;6.40;99.90;;;;;;5055566;28;20390;-45
2021/03/16 09:30:44;;;;;;;14.90;3.13;;;6.40;99.90;;;;;;5052570;28;20379;-46
2021/03/16 09:33:11;;;;;;;16.05;3.50;;;6.30;99.90;;;;;;5050163;28;20055;-46
2021/03/16 09:35:38;;;;;;;17.88;3.67;;;6.40;99.90;;;;;;5050448;28;20086;-45
2021/03/16 09:38:08;;;;;;;13.32;3.17;;;6.30;99.90;;;;;;5058752;28;20560;-46
2021/03/16 09:40:42;;;;;;;14.43;3.00;;;6.50;99.90;;;;;;5051245;28;20143;-47
2021/03/16 09:43:28;;;;;;;9.57;2.70;;;6.70;99.90;;;;;;5050675;28;20021;-49
2021/03/16 09:45:57;;;;;;;8.93;2.30;;;6.70;99.90;;;;;;5061517;28;20024;-50
2021/03/16 09:48:23;;;;;;;8.50;2.50;;;6.90;99.90;;;;;;5055993;28;20060;-47
2021/03/16 09:50:50;;;;;;;12.70;3.25;;;7.10;99.90;;;;;;5050919;28;20185;-48
2021/03/16 09:53:17;;;;;;;14.45;2.97;;;7.30;99.90;;;;;;5062957;28;20036;-46
2021/03/16 09:55:43;;;;;;;20.00;3.92;;;7.30;99.90;;;;;;5060368;28;20054;-49
2021/03/16 09:58:22;;;;;;;18.60;3.63;;;7.50;99.90;;;;;;5067202;28;20028;-48
2021/03/16 10:00:49;;;;;;;10.13;2.88;;;7.50;99.90;;;;;;5063957;28;20675;-48
2021/03/16 10:03:17;;;;;;;9.77;2.80;;;7.50;99.90;;;;;;5064022;28;20013;-50
2021/03/16 10:05:42;;;;;;;14.00;2.63;;;7.60;99.90;;;;;;5060001;28;20029;-46
2021/03/16 10:08:08;;;;;;;14.30;3.20;;;7.60;99.90;;;;;;5066445;28;20027;-46
2021/03/16 10:10:39;;;;;;;14.10;2.90;;;7.70;99.90;;;;;;5064263;28;20330;-48
2021/03/16 10:13:06;;;;;;;;;;;7.70;99.90;;;;;;5056318;28;20021;-49
2021/03/16 10:15:41;;;;;;;14.13;2.88;;;7.80;99.90;;;;;;5053021;28;20003;-47
2021/03/16 10:18:16;;;;;;;9.40;2.72;;;7.60;99.90;;;;;;5052236;28;20158;-47
2021/03/16 10:20:45;;;;;;;7.32;2.15;;;7.70;99.90;;;;;;5053418;28;20565;-47
2021/03/16 10:23:15;;;;;;;8.48;2.30;;;7.80;99.90;;;;;;5052077;28;20044;-46
2021/03/16 10:25:41;;;;;;;8.23;2.17;;;8.10;99.90;;;;;;5051869;28;20401;-49
2021/03/16 10:28:08;;;;;;;14.98;2.35;;;8.00;99.90;;;;;;5053846;28;20032;-47
2021/03/16 10:30:39;;;;;;;13.82;2.40;;;8.10;99.90;;;;;;5054315;28;20033;-45
2021/03/16 10:33:07;;;;;;;16.35;2.60;;;8.00;99.90;;;;;;5049417;28;20032;-48
2021/03/16 10:35:34;;;;;;;7.32;2.00;;;7.90;99.90;;;;;;5056113;28;20387;-47
2021/03/16 10:37:59;;;;;;;18.80;2.47;;;7.90;99.90;;;;;;5052316;28;20021;-46
2021/03/16 10:40:25;;;;;;;12.07;2.33;;;8.00;99.90;;;;;;5052281;28;20472;-47
2021/03/16 10:42:51;;;;;;;9.02;1.95;;;8.00;99.90;;;;;;5051246;28;20500;-46
2021/03/16 10:45:19;;;;;;;7.28;2.03;;;8.00;99.90;;;;;;5052645;28;20021;-47
2021/03/16 10:47:44;;;;;;;10.25;2.00;;;7.90;99.90;;;;;;5053984;28;20021;-48
2021/03/16 10:50:11;;;;;;;12.00;2.42;;;8.10;99.90;;;;;;5054192;28;20029;-47
2021/03/16 10:52:36;;;;;;;5.63;1.80;;;8.20;99.90;;;;;;5053788;28;20053;-47
2021/03/16 10:55:03;;;;;;;8.75;1.50;;;8.50;99.90;;;;;;5051119;28;20074;-45
2021/03/16 10:57:28;;;;;;;6.55;1.80;;;9.50;99.90;;;;;;5045058;28;20032;-47
2021/03/16 10:59:54;;;;;;;6.55;1.90;;;10.10;99.90;;;;;;5048706;28;20040;-47
2021/03/16 11:02:19;;;;;;;4.53;1.60;;;10.30;94.40;;;;;;5046234;28;20025;-47
2021/03/16 11:04:45;;;;;;;7.25;2.05;;;10.20;95.30;;;;;;5066440;28;20551;-47
2021/03/16 11:07:10;;;;;;;10.68;2.15;;;10.10;94.10;;;;;;5055552;28;20183;-47
2021/03/16 11:09:36;;;;;;;4.68;1.63;;;10.00;94.60;;;;;;5048264;28;20104;-47
2021/03/16 11:12:01;;;;;;;8.95;1.95;;;10.00;95.80;;;;;;5047556;28;20025;-46
2021/03/16 11:14:27;;;;;;;8.38;2.72;;;10.00;96.60;;;;;;5046626;28;20029;-48
2021/03/16 11:16:52;;;;;;;4.72;1.65;;;10.00;95.70;;;;;;5046836;28;20029;-47
2021/03/16 11:19:19;;;;;;;11.05;2.72;;;10.00;96.50;;;;;;5048705;28;20640;-47
2021/03/16 11:21:45;;;;;;;11.60;1.98;;;9.80;95.20;;;;;;5052812;28;20029;-47
2021/03/16 11:24:11;;;;;;;9.07;2.30;;;9.50;96.70;;;;;;5046385;28;20036;-47
2021/03/16 11:26:36;;;;;;;6.43;1.88;;;9.20;98.00;;;;;;5046107;28;20029;-47
2021/03/16 11:29:03;;;;;;;10.07;2.63;;;9.00;99.50;;;;;;5046430;28;20029;-47
2021/03/16 11:31:30;;;;;;;11.07;2.03;;;8.90;99.90;;;;;;5046510;28;20278;-47
2021/03/16 11:33:59;;;;;;;14.27;2.92;;;8.90;99.90;;;;;;5046547;28;20020;-47
2021/03/16 11:36:25;;;;;;;8.35;2.03;;;9.10;99.90;;;;;;5048712;28;20044;-47
2021/03/16 11:38:50;;;;;;;13.15;2.45;;;9.20;99.90;;;;;;5049286;28;20435;-46
2021/03/16 11:41:16;;;;;;;7.63;2.03;;;9.30;99.90;;;;;;5051364;28;20443;-46
2021/03/16 11:43:42;;;;;;;7.60;2.17;;;9.30;99.90;;;;;;5058460;28;20040;-46
2021/03/16 11:46:07;;;;;;;7.82;2.40;;;9.40;99.90;;;;;;5061037;28;20119;-47
2021/03/16 11:48:33;;;;;;;7.78;2.20;;;9.70;99.00;;;;;;5052665;28;20021;-47
2021/03/16 11:50:58;;;;;;;13.23;2.38;;;9.90;96.70;;;;;;5048724;28;20072;-45
2021/03/16 11:53:24;;;;;;;6.40;1.80;;;10.10;97.60;;;;;;5058880;28;20016;-46
2021/03/16 11:55:50;;;;;;;10.32;1.63;;;10.20;95.50;;;;;;5061271;28;20009;-46
2021/03/16 11:58:15;;;;;;;10.95;1.60;;;10.30;93.10;;;;;;5051812;28;20036;-47
2021/03/16 12:00:42;;;;;;;5.93;1.80;;;10.40;94.60;;;;;;5054492;28;20089;-47
2021/03/16 12:03:07;;;;;;;9.48;2.42;;;10.50;90.40;;;;;;5058739;28;20028;-46
2021/03/16 12:05:33;;;;;;;8.30;1.58;;;10.50;90.20;;;;;;5057627;28;20406;-49
2021/03/16 12:07:58;;;;;;;7.03;1.73;;;10.40;90.70;;;;;;5058164;28;20036;-46
2021/03/16 12:10:25;;;;;;;4.90;2.25;;;10.20;90.10;;;;;;5056984;28;20277;-47
2021/03/16 12:12:50;;;;;;;10.10;2.22;;;10.00;91.70;;;;;;5060069;28;20017;-46
2021/03/16 12:15:18;;;;;;;8.95;1.75;;;9.90;92.70;;;;;;5056141;28;20291;-47
2021/03/16 12:17:45;;;;;;;11.10;2.53;;;9.70;94.30;;;;;;5056063;28;20505;-46
2021/03/16 12:20:11;;;;;;;8.07;2.53;;;9.60;96.70;;;;;;5056522;28;20436;-46
2021/03/16 12:22:37;;;;;;;10.13;2.33;;;9.40;96.40;;;;;;5058251;28;20497;-46
2021/03/16 12:25:05;;;;;;;12.05;2.55;;;9.20;99.00;;;;;;5052943;28;20099;-47
2021/03/16 12:27:30;;;;;;;11.45;3.28;;;9.00;99.90;;;;;;5056818;28;20036;-46
2021/03/16 12:29:56;;;;;;;11.35;3.03;;;9.00;99.90;;;;;;5059975;28;20032;-46
2021/03/16 12:32:22;;;;;;;12.88;3.13;;;9.10;99.90;;;;;;5052741;28;20236;-47
2021/03/16 12:34:50;;;;;;;16.67;2.75;;;9.10;99.90;;;;;;5052741;28;20120;-49
2021/03/16 12:37:16;;;;;;;6.55;2.28;;;9.40;99.90;;;;;;5059865;28;20013;-48
2021/03/16 12:39:43;;;;;;;8.77;2.70;;;9.40;99.90;;;;;;5057556;28;20029;-46
2021/03/16 12:42:08;;;;;;;13.30;2.20;;;9.70;99.90;;;;;;5053115;28;20125;-46
2021/03/16 12:44:35;;;;;;;8.35;2.30;;;9.90;99.90;;;;;;5059894;28;20062;-48
2021/03/16 12:47:04;;;;;;;8.30;2.40;;;10.10;98.70;;;;;;5056025;28;20073;-47
2021/03/16 12:49:29;;;;;;;13.00;2.38;;;10.20;98.50;;;;;;5051256;28;20180;-46
2021/03/16 12:51:55;;;;;;;11.80;2.40;;;10.20;99.90;;;;;;5052951;28;20032;-47